Time;durP1;ratioP1;P1;durP2;ratioP2;P2;SDS_P1;SDS_P2;PMS_P1;PMS_P2;Temp;Humidity;BMP_temperature;BMP_pressure;BME280_temperature;BME280_humidity;BME280_pressure;Samples;Min_cycle;Max_cycle;Signal;HPM_P1;HPM_P2
2022/08/07 00:01:55;;;;;;;5.27;1.93;;;14.50;99.90;;;;;;6196156;23;20286;-94
2022/08/07 00:04:21;;;;;;;7.07;2.42;;;14.50;99.90;;;;;;6220934;23;20014;-94
2022/08/07 00:06:47;;;;;;;5.55;2.05;;;14.50;99.90;;;;;;6195847;23;20016;-87
2022/08/07 00:09:12;;;;;;;4.70;1.95;;;14.50;99.90;;;;;;6195619;22;20023;-89
2022/08/07 00:11:38;;;;;;;5.20;2.20;;;14.40;99.90;;;;;;6220836;23;20110;-92
2022/08/07 00:14:04;;;;;;;5.43;2.10;;;14.40;99.90;;;;;;6220873;23;20333;-96
2022/08/07 00:16:30;;;;;;;5.88;2.67;;;14.40;99.90;;;;;;6195518;23;20468;-95
2022/08/07 00:18:55;;;;;;;5.10;2.27;;;14.30;99.90;;;;;;6220512;23;20433;-88
2022/08/07 00:21:21;;;;;;;4.20;1.90;;;14.30;99.90;;;;;;6195598;23;20316;-88
2022/08/07 00:23:47;;;;;;;5.22;2.25;;;14.30;99.90;;;;;;6220732;23;20012;-91
2022/08/07 00:26:13;;;;;;;5.10;2.23;;;14.30;99.90;;;;;;6196366;23;20077;-90
2022/08/07 00:28:39;;;;;;;5.28;2.28;;;14.30;99.90;;;;;;6220667;23;20016;-90
2022/08/07 00:31:08;;;;;;;5.03;2.72;;;14.30;99.90;;;;;;6195649;23;20349;-95
2022/08/07 00:33:35;;;;;;;5.57;2.55;;;14.30;99.90;;;;;;6195638;23;20008;-95
2022/08/07 00:36:01;;;;;;;6.45;2.30;;;14.30;99.90;;;;;;6220746;23;20098;-92
2022/08/07 00:38:27;;;;;;;;;;;14.20;99.90;;;;;;6196041;23;20023;-94
2022/08/07 00:40:53;;;;;;;5.35;2.30;;;14.20;99.90;;;;;;6220451;23;19954;-93
2022/08/07 00:43:18;;;;;;;6.60;2.93;;;14.20;99.90;;;;;;6220325;23;20154;-95
2022/08/07 00:45:44;;;;;;;6.20;2.20;;;14.20;99.90;;;;;;6220410;23;20251;-87
2022/08/07 00:48:10;;;;;;;4.47;2.00;;;14.10;99.90;;;;;;6220621;23;20020;-88
2022/08/07 00:50:37;;;;;;;4.18;1.65;;;14.00;99.90;;;;;;6220347;23;20020;-92
2022/08/07 00:53:03;;;;;;;4.95;1.73;;;13.90;99.90;;;;;;6247209;23;20027;-88
2022/08/07 00:55:29;;;;;;;3.30;1.42;;;13.90;99.90;;;;;;6220256;23;20016;-93
2022/08/07 00:57:55;;;;;;;5.10;2.40;;;13.80;99.90;;;;;;6220532;23;20027;-90
2022/08/07 01:00:21;;;;;;;6.07;2.30;;;13.80;99.90;;;;;;6220502;23;20016;-94
2022/08/07 01:02:47;;;;;;;4.97;2.42;;;13.80;99.90;;;;;;6195397;23;20251;-95
2022/08/07 01:05:15;;;;;;;5.50;2.88;;;13.70;99.90;;;;;;6220545;23;20047;-96
2022/08/07 01:07:41;;;;;;;5.28;2.40;;;13.70;99.90;;;;;;6195002;23;20016;-86
2022/08/07 01:10:07;;;;;;;4.95;2.17;;;13.70;99.90;;;;;;6195183;23;20012;-93
2022/08/07 01:12:35;;;;;;;5.85;2.80;;;13.70;99.90;;;;;;6220540;23;20031;-95
2022/08/07 01:15:01;;;;;;;4.95;2.30;;;13.70;99.90;;;;;;6195247;23;20031;-92
2022/08/07 01:17:28;;;;;;;4.65;1.95;;;13.70;99.90;;;;;;6195323;23;20024;-89
2022/08/07 01:20:00;;;;;;;5.15;2.38;;;13.60;99.90;;;;;;6246996;23;20016;-92
2022/08/07 01:22:26;;;;;;;3.97;1.85;;;13.60;99.90;;;;;;6219973;23;20087;-91
2022/08/07 01:24:52;;;;;;;5.28;2.47;;;13.50;99.90;;;;;;6195081;23;20016;-89
2022/08/07 01:27:18;;;;;;;5.63;2.70;;;13.40;99.90;;;;;;6246765;23;20100;-86
2022/08/07 01:29:44;;;;;;;5.70;2.88;;;13.50;99.90;;;;;;6220410;23;20016;-89
2022/08/07 01:32:09;;;;;;;5.03;2.53;;;13.40;99.90;;;;;;6195224;23;20020;-90
2022/08/07 01:34:36;;;;;;;6.73;3.30;;;13.40;99.90;;;;;;6220468;23;20019;-92
2022/08/07 01:37:02;;;;;;;5.80;2.47;;;13.40;99.90;;;;;;6195103;23;20023;-88
2022/08/07 01:39:28;;;;;;;5.45;2.47;;;13.40;99.90;;;;;;6194975;23;20544;-94
2022/08/07 01:41:54;;;;;;;7.03;3.28;;;13.50;99.90;;;;;;6220233;23;20099;-93
2022/08/07 01:44:20;;;;;;;5.47;2.80;;;13.40;99.90;;;;;;6220399;23;20051;-95
2022/08/07 01:46:46;;;;;;;4.50;2.03;;;13.40;99.90;;;;;;6220159;23;20016;-91
2022/08/07 01:49:12;;;;;;;3.17;1.52;;;13.40;99.90;;;;;;6194809;23;20020;-90
2022/08/07 01:51:40;;;;;;;3.35;1.48;;;13.30;99.90;;;;;;6194877;23;20062;-95
2022/08/07 01:54:09;;;;;;;2.60;1.30;;;13.20;99.90;;;;;;6194900;23;20016;-91
2022/08/07 01:56:50;;;;;;;3.15;1.27;;;13.10;99.90;;;;;;6246377;23;20028;-96
2022/08/07 01:59:38;;;;;;;2.53;1.25;;;13.00;99.90;;;;;;6194847;23;20055;-90
2022/08/07 02:02:14;;;;;;;3.95;1.85;;;13.00;99.90;;;;;;6219854;23;20012;-91
2022/08/07 02:04:57;;;;;;;4.68;1.63;;;12.90;99.90;;;;;;6194780;23;20446;-90
2022/08/07 02:07:26;;;;;;;6.22;1.83;;;12.90;99.90;;;;;;6246599;23;20369;-92
2022/08/07 02:09:55;;;;;;;5.40;2.05;;;12.90;99.90;;;;;;6194597;23;20506;-90
2022/08/07 02:12:23;;;;;;;4.63;2.10;;;12.90;99.90;;;;;;6219641;23;20020;-91
2022/08/07 02:14:55;;;;;;;4.72;2.03;;;12.90;99.90;;;;;;6219653;23;20023;-93
2022/08/07 02:17:21;;;;;;;4.15;1.70;;;12.90;99.90;;;;;;6219578;23;20027;-91
2022/08/07 02:19:48;;;;;;;4.32;1.92;;;12.90;99.90;;;;;;6219050;23;20012;-87
2022/08/07 02:22:18;;;;;;;5.75;2.42;;;12.90;99.90;;;;;;6219637;23;20024;-95
2022/08/07 02:24:45;;;;;;;4.93;2.53;;;13.00;99.90;;;;;;6194709;23;20012;-93
2022/08/07 02:27:14;;;;;;;5.15;2.30;;;13.00;99.90;;;;;;6246362;23;20020;-87
2022/08/07 02:29:40;;;;;;;5.43;2.45;;;12.90;99.90;;;;;;6194356;23;20012;-89
2022/08/07 02:32:09;;;;;;;4.55;2.33;;;13.00;99.90;;;;;;6194406;23;20031;-90
2022/08/07 02:34:37;;;;;;;4.28;1.83;;;13.00;99.90;;;;;;6194546;23;20011;-91
2022/08/07 02:37:23;;;;;;;5.63;2.67;;;13.00;99.90;;;;;;6219260;23;20080;-85
2022/08/07 02:39:54;;;;;;;5.82;2.60;;;12.90;99.90;;;;;;6194713;23;20066;-92
2022/08/07 02:42:21;;;;;;;5.28;2.10;;;12.90;99.90;;;;;;6245832;23;20376;-91
2022/08/07 02:44:49;;;;;;;5.18;2.00;;;12.90;99.90;;;;;;6193931;23;20013;-86
2022/08/07 02:47:17;;;;;;;7.03;2.20;;;12.80;99.90;;;;;;6219140;23;20016;-84
2022/08/07 02:49:43;;;;;;;5.47;2.75;;;12.80;99.90;;;;;;6219170;23;20016;-86
2022/08/07 02:56:11;;;;;;;5.50;2.63;;;12.70;99.90;;;;;;6246308;23;20479;-95
2022/08/07 02:58:39;;;;;;;4.97;2.30;;;12.70;99.90;;;;;;6169254;23;20052;-87
2022/08/07 03:01:05;;;;;;;4.50;1.83;;;12.70;99.90;;;;;;6219230;23;20023;-88
2022/08/07 03:03:33;;;;;;;4.80;2.08;;;12.60;99.90;;;;;;6219193;23;20349;-96
2022/08/07 03:06:15;;;;;;;5.15;2.28;;;12.60;99.90;;;;;;6194228;23;20074;-96
2022/08/07 03:08:42;;;;;;;5.07;1.92;;;12.60;99.90;;;;;;6197786;23;20027;-90
2022/08/07 03:11:08;;;;;;;5.28;2.13;;;12.60;99.90;;;;;;6198090;23;20016;-93
2022/08/07 03:13:34;;;;;;;4.28;1.92;;;12.50;99.90;;;;;;6196401;23;20043;-92
2022/08/07 03:16:00;;;;;;;4.68;1.80;;;12.60;99.90;;;;;;6196003;23;20450;-94
2022/08/07 03:18:28;;;;;;;5.22;2.03;;;12.60;99.90;;;;;;6219634;23;20039;-87
2022/08/07 03:20:54;;;;;;;4.70;1.80;;;12.50;99.90;;;;;;6221273;23;20016;-88
2022/08/07 03:23:20;;;;;;;5.07;2.22;;;12.60;99.90;;;;;;6200798;23;20091;-89
2022/08/07 03:25:47;;;;;;;4.47;1.83;;;12.60;99.90;;;;;;6223344;23;20016;-94
2022/08/07 03:28:16;;;;;;;5.53;2.20;;;12.60;99.90;;;;;;6201621;23;20346;-96
2022/08/07 03:30:43;;;;;;;5.35;1.95;;;12.70;99.90;;;;;;6202004;23;20016;-93
2022/08/07 03:33:09;;;;;;;4.22;1.98;;;12.70;99.90;;;;;;6223036;23;20020;-96
2022/08/07 03:35:37;;;;;;;5.57;2.20;;;12.80;99.90;;;;;;6221240;23;20012;-94
2022/08/07 03:38:19;;;;;;;4.88;2.20;;;12.80;99.90;;;;;;6248922;23;20103;-89
2022/08/07 03:40:45;;;;;;;4.65;1.83;;;12.90;99.90;;;;;;6196647;23;20024;-95
2022/08/07 03:43:11;;;;;;;4.67;1.90;;;12.90;99.90;;;;;;6196269;23;20031;-94
2022/08/07 03:45:37;;;;;;;4.80;1.90;;;12.90;99.90;;;;;;6196167;23;20393;-91
2022/08/07 03:48:03;;;;;;;5.20;2.25;;;12.90;99.90;;;;;;6195938;23;20023;-93
2022/08/07 03:50:30;;;;;;;4.97;2.10;;;13.00;99.90;;;;;;6221177;23;20484;-90
2022/08/07 03:52:57;;;;;;;;;;;13.00;99.90;;;;;;6196454;23;20106;-92
2022/08/07 03:55:23;;;;;;;4.95;1.98;;;13.00;99.90;;;;;;6248371;23;19915;-91
2022/08/07 03:57:50;;;;;;;4.93;2.35;;;13.00;99.90;;;;;;6220993;23;20345;-95
2022/08/07 04:00:17;;;;;;;3.72;1.63;;;13.00;99.90;;;;;;6195725;23;20012;-88
2022/08/07 04:02:43;;;;;;;5.72;2.22;;;13.00;99.90;;;;;;6196141;23;20016;-90
2022/08/07 04:05:09;;;;;;;;;;;13.00;99.90;;;;;;6221603;23;20020;-89
2022/08/07 04:07:35;;;;;;;5.63;1.80;;;12.90;99.90;;;;;;6221142;23;19919;-89
2022/08/07 04:10:02;;;;;;;4.18;1.70;;;12.90;99.90;;;;;;6247319;22;20020;-94
2022/08/07 04:12:30;;;;;;;5.25;2.08;;;12.90;99.90;;;;;;6195778;23;20024;-92
2022/08/07 04:14:57;;;;;;;5.63;2.10;;;12.80;99.90;;;;;;6195943;23;20024;-91
2022/08/07 04:17:22;;;;;;;3.97;1.65;;;12.70;99.90;;;;;;6195947;23;20465;-88
2022/08/07 04:19:51;;;;;;;5.45;2.55;;;12.70;99.90;;;;;;6195423;23;20016;-93
2022/08/07 04:22:18;;;;;;;4.35;1.70;;;12.70;99.90;;;;;;6220793;23;20024;-96
2022/08/07 04:24:45;;;;;;;4.95;1.92;;;12.70;99.90;;;;;;6196313;23;20020;-87
2022/08/07 04:27:10;;;;;;;5.75;2.42;;;12.70;99.90;;;;;;6221660;23;20469;-95
2022/08/07 04:29:36;;;;;;;5.00;2.10;;;12.70;99.90;;;;;;6221196;23;20016;-96
2022/08/07 04:32:02;;;;;;;6.37;2.13;;;12.70;99.90;;;;;;6221021;23;20099;-87
2022/08/07 04:34:29;;;;;;;4.75;1.90;;;12.70;99.90;;;;;;6195591;23;20098;-96
2022/08/07 04:36:55;;;;;;;;;;;12.80;99.90;;;;;;6221406;23;20020;-96
2022/08/07 04:39:20;;;;;;;4.05;1.75;;;12.80;99.90;;;;;;6195879;23;19998;-92
2022/08/07 04:41:46;;;;;;;4.67;2.13;;;12.70;99.90;;;;;;6195605;23;20020;-94
2022/08/07 04:44:12;;;;;;;4.77;2.20;;;12.60;99.90;;;;;;6195315;23;20021;-95
2022/08/07 04:46:55;;;;;;;5.67;2.10;;;12.60;99.90;;;;;;6247376;23;20043;-87
2022/08/07 04:49:28;;;;;;;4.93;2.05;;;12.50;99.90;;;;;;6195632;23;20020;-91
2022/08/07 04:52:09;;;;;;;4.07;1.80;;;12.60;99.90;;;;;;6221310;23;20511;-92
2022/08/07 04:54:54;;;;;;;6.43;2.15;;;12.60;99.90;;;;;;6195644;23;20461;-94
2022/08/07 04:57:35;;;;;;;4.60;1.95;;;12.60;99.90;;;;;;6195619;23;20020;-91
2022/08/07 05:00:07;;;;;;;5.85;2.05;;;12.60;99.90;;;;;;6195042;23;20012;-89
2022/08/07 05:02:45;;;;;;;4.15;1.60;;;12.60;99.90;;;;;;6195230;23;20020;-89
2022/08/07 05:05:17;;;;;;;5.95;2.00;;;12.70;99.90;;;;;;6195332;23;20020;-92
2022/08/07 05:08:00;;;;;;;4.28;1.80;;;12.60;99.90;;;;;;6220483;23;20441;-94
2022/08/07 05:10:42;;;;;;;4.95;1.80;;;12.70;99.90;;;;;;6195152;23;20020;-88
2022/08/07 05:13:14;;;;;;;5.03;2.17;;;12.70;99.90;;;;;;6220345;23;20023;-92
2022/08/07 05:15:43;;;;;;;4.93;1.92;;;12.70;99.90;;;;;;6195187;23;20066;-93
2022/08/07 05:18:29;;;;;;;4.28;1.88;;;12.80;99.90;;;;;;6246891;23;20016;-85
2022/08/07 05:21:01;;;;;;;5.40;2.08;;;12.90;99.90;;;;;;6194241;23;20027;-85
2022/08/07 05:23:33;;;;;;;4.13;1.83;;;12.90;99.90;;;;;;6194538;23;20052;-84
2022/08/07 05:26:01;;;;;;;6.00;2.00;;;13.00;99.90;;;;;;6194501;23;20051;-94
2022/08/07 05:28:30;;;;;;;5.80;2.28;;;13.10;99.90;;;;;;6194885;23;20338;-89
2022/08/07 05:30:58;;;;;;;5.10;2.00;;;13.20;99.90;;;;;;6220123;23;20024;-87
2022/08/07 05:41:15;;;;;;;4.60;1.50;;;13.50;99.90;;;;;;6220354;23;20122;-89
2022/08/07 05:43:45;;;;;;;4.60;2.00;;;13.70;99.90;;;;;;6194969;23;20047;-88
2022/08/07 05:46:11;;;;;;;4.72;1.85;;;13.70;99.90;;;;;;6195023;23;20019;-95
2022/08/07 05:48:57;;;;;;;4.43;1.90;;;13.80;99.90;;;;;;6219590;23;20020;-87
2022/08/07 05:51:23;;;;;;;5.88;1.98;;;13.80;99.90;;;;;;6194749;23;20445;-96
2022/08/07 05:53:49;;;;;;;3.85;1.85;;;13.90;99.90;;;;;;6194787;23;20050;-92
2022/08/07 05:56:17;;;;;;;5.90;2.47;;;14.10;99.90;;;;;;6194886;23;20024;-96
2022/08/07 05:58:45;;;;;;;5.75;1.92;;;14.50;99.90;;;;;;6194459;23;20442;-95
2022/08/07 06:01:13;;;;;;;5.47;2.15;;;14.80;99.90;;;;;;6219956;23;20016;-89
2022/08/07 06:03:43;;;;;;;5.97;1.98;;;15.10;99.90;;;;;;6195074;23;20020;-95
2022/08/07 06:06:10;;;;;;;5.18;1.58;;;15.50;99.90;;;;;;6219667;23;20027;-89
2022/08/07 06:08:38;;;;;;;5.30;2.30;;;16.50;99.90;;;;;;6219829;23;20047;-91
2022/08/07 06:11:04;;;;;;;6.68;2.08;;;17.80;99.90;;;;;;6194308;23;20099;-95
2022/08/07 06:13:30;;;;;;;3.22;1.42;;;19.00;99.90;;;;;;6219774;23;20062;-91
2022/08/07 06:15:57;;;;;;;3.97;1.75;;;20.00;99.90;;;;;;6219484;23;20012;-91
2022/08/07 06:18:43;;;;;;;5.38;1.73;;;20.90;99.90;;;;;;6219986;23;20016;-96
2022/08/07 06:21:10;;;;;;;3.88;1.50;;;21.70;99.90;;;;;;6194370;23;20051;-87
2022/08/07 06:23:36;;;;;;;4.97;1.60;;;22.50;99.90;;;;;;6194480;23;20516;-91
2022/08/07 06:26:03;;;;;;;3.60;1.40;;;23.10;99.50;;;;;;6219537;23;20106;-94
2022/08/07 06:28:29;;;;;;;4.90;1.60;;;23.70;98.10;;;;;;6219369;23;20020;-96
2022/08/07 06:30:55;;;;;;;;;;;24.10;96.70;;;;;;6220250;23;20016;-95
2022/08/07 06:33:22;;;;;;;4.68;1.45;;;24.50;91.70;;;;;;6219640;23;20006;-87
2022/08/07 06:35:48;;;;;;;3.33;1.55;;;24.80;93.80;;;;;;6219357;23;20345;-95
2022/08/07 06:38:14;;;;;;;3.53;1.70;;;25.20;93.20;;;;;;6246280;23;20020;-94
2022/08/07 06:40:46;;;;;;;3.08;1.33;;;25.50;92.30;;;;;;6219501;23;20015;-92
2022/08/07 06:43:14;;;;;;;2.80;1.17;;;25.60;91.00;;;;;;6194570;23;20020;-91
2022/08/07 06:45:40;;;;;;;3.15;1.15;;;25.80;90.30;;;;;;6219366;23;20023;-87
2022/08/07 06:48:06;;;;;;;1.98;0.90;;;26.00;88.80;;;;;;6219316;23;20026;-89
2022/08/07 06:50:35;;;;;;;2.00;0.85;;;26.20;86.70;;;;;;6219708;23;20094;-93
2022/08/07 06:53:03;;;;;;;3.00;1.00;;;26.30;83.60;;;;;;6219510;23;20020;-90
2022/08/07 06:55:30;;;;;;;3.40;1.10;;;26.20;81.90;;;;;;6245849;23;20016;-88
2022/08/07 06:58:02;;;;;;;2.00;0.80;;;25.90;81.30;;;;;;6219463;23;20039;-91
2022/08/07 07:00:36;;;;;;;3.70;1.00;;;25.10;81.10;;;;;;6194204;23;20094;-89
2022/08/07 07:03:03;;;;;;;2.10;0.80;;;24.20;83.60;;;;;;6194293;23;20082;-89
2022/08/07 07:05:29;;;;;;;1.77;0.80;;;23.70;84.10;;;;;;6220227;23;20012;-86
2022/08/07 07:07:55;;;;;;;2.15;1.00;;;23.90;84.30;;;;;;6221066;23;20020;-94
2022/08/07 07:10:28;;;;;;;2.22;1.15;;;24.30;82.90;;;;;;6220960;23;20115;-95
2022/08/07 07:12:58;;;;;;;2.35;0.60;;;24.70;81.80;;;;;;6221436;23;20016;-92
2022/08/07 07:15:28;;;;;;;2.40;0.90;;;25.10;80.30;;;;;;6196211;23;20099;-93
2022/08/07 07:18:07;;;;;;;1.75;0.73;;;25.30;79.00;;;;;;6221307;23;20457;-86
2022/08/07 07:20:42;;;;;;;2.03;0.90;;;25.40;77.10;;;;;;6221371;23;20016;-89
2022/08/07 07:23:08;;;;;;;1.75;0.75;;;25.40;76.80;;;;;;6221095;23;20039;-96
2022/08/07 07:25:38;;;;;;;2.10;0.73;;;25.20;77.00;;;;;;6221568;23;20135;-92
2022/08/07 07:28:15;;;;;;;1.90;0.90;;;24.60;77.90;;;;;;6220945;23;20016;-89
2022/08/07 07:30:46;;;;;;;2.17;0.80;;;23.80;78.40;;;;;;6196288;23;20019;-88
2022/08/07 07:33:16;;;;;;;2.47;0.90;;;23.10;80.50;;;;;;6196295;23;20052;-92
2022/08/07 07:35:49;;;;;;;1.45;0.77;;;22.40;81.60;;;;;;6196039;23;20044;-90
2022/08/07 07:38:20;;;;;;;2.78;0.90;;;21.80;83.20;;;;;;6221370;23;20477;-92
2022/08/07 07:40:47;;;;;;;1.95;0.90;;;21.40;83.90;;;;;;6247636;23;20027;-88
2022/08/07 07:43:16;;;;;;;3.28;1.38;;;20.90;84.90;;;;;;6195923;23;20287;-88
2022/08/07 07:45:46;;;;;;;2.63;1.10;;;20.60;85.80;;;;;;6246530;23;20020;-89
2022/08/07 07:48:16;;;;;;;2.25;0.95;;;20.30;86.70;;;;;;6194668;23;20070;-91
2022/08/07 07:50:44;;;;;;;2.97;1.30;;;20.00;87.20;;;;;;6221302;23;20020;-91
2022/08/07 07:53:11;;;;;;;3.20;1.10;;;19.80;87.80;;;;;;6220967;23;20020;-91
2022/08/07 07:55:37;;;;;;;2.78;1.20;;;19.60;88.60;;;;;;6221091;23;20020;-95
2022/08/07 07:58:04;;;;;;;3.00;1.60;;;19.40;89.60;;;;;;6196084;23;20016;-86
2022/08/07 08:00:32;;;;;;;3.45;1.40;;;19.30;89.70;;;;;;6220954;23;20016;-93
2022/08/07 08:03:06;;;;;;;3.13;1.30;;;19.20;90.20;;;;;;6221163;23;20099;-86
2022/08/07 08:05:35;;;;;;;3.25;1.20;;;19.20;90.40;;;;;;6195652;23;20016;-94
2022/08/07 08:08:02;;;;;;;3.85;1.52;;;19.10;90.70;;;;;;6247734;23;20023;-91
2022/08/07 08:10:29;;;;;;;3.05;1.50;;;19.00;90.90;;;;;;6195561;23;20377;-90
2022/08/07 08:13:15;;;;;;;3.85;1.50;;;19.00;91.00;;;;;;6195603;23;20055;-87
2022/08/07 08:15:43;;;;;;;3.53;1.50;;;19.00;91.20;;;;;;6195603;23;20021;-95
2022/08/07 08:18:10;;;;;;;4.55;1.70;;;18.90;91.30;;;;;;6220431;23;20012;-93
2022/08/07 08:20:39;;;;;;;3.33;1.65;;;19.00;91.60;;;;;;6220496;23;20023;-88
2022/08/07 08:29:17;;;;;;;4.72;1.70;;;18.90;92.00;;;;;;6220739;23;20051;-89
2022/08/07 08:32:06;;;;;;;3.55;1.50;;;18.80;92.00;;;;;;6195729;23;20016;-90
2022/08/07 08:34:32;;;;;;;5.70;1.70;;;18.90;92.20;;;;;;6195654;23;20020;-86
2022/08/07 08:37:01;;;;;;;2.97;1.20;;;18.90;92.30;;;;;;6195258;23;20016;-89
2022/08/07 08:39:27;;;;;;;3.38;1.65;;;18.90;92.20;;;;;;6220089;23;20012;-90
2022/08/07 08:42:22;;;;;;;3.05;1.65;;;18.90;92.30;;;;;;6194978;23;20027;-89
2022/08/07 08:45:02;;;;;;;3.30;1.35;;;18.90;92.20;;;;;;6195378;23;20023;-89
2022/08/07 08:47:36;;;;;;;3.63;1.40;;;18.80;92.20;;;;;;6195605;23;20027;-90
2022/08/07 08:50:13;;;;;;;3.58;1.50;;;18.80;92.40;;;;;;6195268;23;20341;-88
2022/08/07 08:52:50;;;;;;;3.60;1.58;;;18.70;92.50;;;;;;6220213;23;20104;-89
2022/08/07 08:55:26;;;;;;;3.13;1.45;;;18.70;92.70;;;;;;6193998;23;20469;-90
2022/08/07 08:58:02;;;;;;;3.90;1.85;;;18.80;92.80;;;;;;6219972;23;20016;-88
2022/08/07 09:00:39;;;;;;;3.47;1.40;;;18.80;92.80;;;;;;6195121;23;20020;-89
2022/08/07 09:03:41;;;;;;;3.80;1.65;;;18.90;92.90;;;;;;6194873;23;20023;-87
2022/08/07 09:06:38;;;;;;;3.63;1.75;;;18.90;92.80;;;;;;6195061;23;20095;-90
2022/08/07 09:09:19;;;;;;;4.28;1.65;;;19.00;93.00;;;;;;6195290;23;20045;-87
2022/08/07 09:12:17;;;;;;;3.33;1.27;;;19.00;93.10;;;;;;6219866;23;20189;-89
2022/08/07 09:15:21;;;;;;;3.80;1.50;;;19.00;93.10;;;;;;6193666;23;20020;-89
2022/08/07 09:18:12;;;;;;;4.43;1.70;;;19.00;93.20;;;;;;6161729;23;20020;-87
2022/08/07 09:20:53;;;;;;;3.15;1.35;;;19.10;93.10;;;;;;6220156;23;20016;-89
2022/08/07 09:23:32;;;;;;;3.58;1.63;;;19.10;93.00;;;;;;6195234;23;20062;-90
2022/08/07 09:26:52;;;;;;;3.35;1.60;;;19.20;93.00;;;;;;6219876;23;20513;-87
2022/08/07 09:29:41;;;;;;;3.13;1.25;;;19.20;93.10;;;;;;6195138;23;20024;-91
2022/08/07 09:32:20;;;;;;;3.97;1.92;;;19.30;92.80;;;;;;6195329;23;20019;-91
2022/08/07 09:35:01;;;;;;;3.72;1.45;;;19.30;93.00;;;;;;6195511;23;20039;-89
2022/08/07 09:37:42;;;;;;;7.40;2.85;;;19.20;93.00;;;;;;6220376;23;20461;-92
2022/08/07 09:40:36;;;;;;;3.50;1.55;;;19.20;93.10;;;;;;6195080;23;20012;-88
2022/08/07 09:43:26;;;;;;;4.65;1.63;;;19.10;93.10;;;;;;6220295;23;20012;-91
2022/08/07 09:46:25;;;;;;;3.38;1.27;;;19.10;92.90;;;;;;6195307;23;20327;-94
2022/08/07 09:49:04;;;;;;;3.15;1.27;;;19.10;93.00;;;;;;6220539;23;20035;-94
2022/08/07 09:51:51;;;;;;;3.13;1.40;;;19.10;92.90;;;;;;6195248;23;20012;-91
2022/08/07 09:54:21;;;;;;;3.47;1.55;;;19.20;92.80;;;;;;6195328;23;20027;-91
2022/08/07 09:56:50;;;;;;;4.00;1.30;;;19.20;93.00;;;;;;6195119;23;20020;-90
2022/08/07 09:59:37;;;;;;;4.65;1.40;;;19.20;93.00;;;;;;6195104;23;20023;-93
2022/08/07 10:02:35;;;;;;;3.50;1.30;;;19.30;92.80;;;;;;6195328;23;20020;-91
2022/08/07 10:05:12;;;;;;;3.58;1.38;;;19.40;92.80;;;;;;6195681;23;20016;-90
2022/08/07 10:08:09;;;;;;;3.22;1.33;;;19.40;93.00;;;;;;6195450;23;20027;-90
2022/08/07 10:11:01;;;;;;;3.63;1.35;;;19.50;92.60;;;;;;6191793;23;20529;-90
2022/08/07 10:14:06;;;;;;;3.13;1.38;;;19.50;92.30;;;;;;6218101;23;20020;-89
2022/08/07 10:17:06;;;;;;;3.13;1.30;;;19.50;92.10;;;;;;6192811;23;20026;-89
2022/08/07 10:19:51;;;;;;;2.97;1.25;;;19.60;92.20;;;;;;6169310;23;20339;-88
2022/08/07 10:23:04;;;;;;;2.22;1.02;;;19.60;91.90;;;;;;6194981;23;20020;-90
2022/08/07 10:26:06;;;;;;;2.47;1.05;;;19.60;91.20;;;;;;6188903;23;20020;-89
2022/08/07 10:29:00;;;;;;;2.22;1.05;;;19.70;91.40;;;;;;6219585;23;20081;-90
2022/08/07 10:31:50;;;;;;;3.17;1.20;;;19.80;90.40;;;;;;6192928;23;20024;-89
2022/08/07 10:34:37;;;;;;;3.03;1.33;;;19.80;90.70;;;;;;6194812;23;20381;-91
2022/08/07 10:37:44;;;;;;;2.33;0.93;;;19.90;90.80;;;;;;6194589;23;20024;-88
2022/08/07 10:40:18;;;;;;;3.50;0.90;;;20.00;90.50;;;;;;6219725;23;20027;-91
2022/08/07 10:43:08;;;;;;;2.78;1.23;;;20.10;90.70;;;;;;6195021;23;20019;-91
2022/08/07 10:45:42;;;;;;;2.20;0.98;;;20.20;90.20;;;;;;6192688;23;20015;-90
2022/08/07 10:48:34;;;;;;;1.90;0.88;;;20.30;90.40;;;;;;6194322;23;20337;-92
2022/08/07 10:51:08;;;;;;;3.42;0.90;;;20.50;90.30;;;;;;6195148;23;20446;-88
2022/08/07 10:53:52;;;;;;;1.38;0.60;;;20.60;89.50;;;;;;6194903;23;20024;-92
2022/08/07 10:56:41;;;;;;;3.90;0.90;;;20.80;88.90;;;;;;6194874;23;20098;-88
2022/08/07 10:59:13;;;;;;;2.35;0.95;;;21.00;84.80;;;;;;6196131;23;20020;-90
2022/08/07 11:02:26;;;;;;;2.28;0.80;;;21.20;87.40;;;;;;6194456;23;20027;-93
2022/08/07 11:05:23;;;;;;;2.38;0.90;;;21.30;86.50;;;;;;6168202;23;20012;-92
2022/08/07 11:08:25;;;;;;;2.45;1.00;;;21.50;86.40;;;;;;6194375;23;20020;-96
2022/08/07 11:11:16;;;;;;;2.38;0.93;;;21.70;86.30;;;;;;6194413;23;20019;-94
2022/08/07 11:13:48;;;;;;;2.22;0.90;;;21.80;84.60;;;;;;6194100;23;20103;-90
2022/08/07 11:16:35;;;;;;;2.17;1.00;;;22.00;84.90;;;;;;6194499;23;20099;-89
2022/08/07 11:19:00;;;;;;;1.17;0.68;;;22.20;85.40;;;;;;6246399;23;20016;-89
2022/08/07 11:22:03;;;;;;;1.98;0.93;;;22.30;85.80;;;;;;6194530;23;20512;-91
2022/08/07 11:24:55;;;;;;;2.10;0.90;;;22.40;85.30;;;;;;6194829;23;20020;-89
2022/08/07 11:27:31;;;;;;;3.40;1.52;;;22.40;85.30;;;;;;6195650;23;20020;-89
2022/08/07 11:30:04;;;;;;;;;;;22.40;84.70;;;;;;6195312;23;20012;-92
2022/08/07 11:32:42;;;;;;;2.30;1.08;;;22.50;82.10;;;;;;6194259;23;19916;-91
2022/08/07 11:35:39;;;;;;;2.95;0.98;;;22.60;83.50;;;;;;6194606;23;20022;-91
2022/08/07 11:38:24;;;;;;;2.25;1.00;;;22.70;83.20;;;;;;6193750;23;20012;-93
2022/08/07 11:40:55;;;;;;;2.83;0.90;;;22.80;83.60;;;;;;6194306;23;20020;-91
2022/08/07 11:43:55;;;;;;;1.92;0.90;;;22.70;83.10;;;;;;6194838;23;20385;-88
2022/08/07 11:46:24;;;;;;;2.17;0.80;;;22.60;81.30;;;;;;6166504;23;20016;-89
2022/08/07 11:49:16;;;;;;;2.00;0.80;;;22.60;82.80;;;;;;6194809;23;20047;-95
2022/08/07 11:51:52;;;;;;;2.40;1.15;;;22.70;80.60;;;;;;6192161;23;20020;-89
2022/08/07 11:54:30;;;;;;;2.47;0.95;;;22.90;81.80;;;;;;6193864;23;20201;-91
2022/08/07 11:57:08;;;;;;;2.55;0.77;;;23.00;82.70;;;;;;6193868;23;20055;-91
2022/08/07 11:59:55;;;;;;;1.58;0.60;;;23.10;81.80;;;;;;6194415;23;20016;-92
2022/08/07 12:02:39;;;;;;;1.50;0.70;;;23.30;81.20;;;;;;6194677;23;20441;-90
2022/08/07 12:05:27;;;;;;;2.67;0.80;;;23.50;79.30;;;;;;6196043;23;20020;-88
2022/08/07 12:08:01;;;;;;;1.60;0.70;;;23.60;80.40;;;;;;6196382;23;20043;-90
2022/08/07 12:10:40;;;;;;;1.88;0.80;;;23.80;80.40;;;;;;6195976;23;20108;-88
2022/08/07 12:13:23;;;;;;;1.83;0.85;;;23.90;79.90;;;;;;6196511;23;20524;-90
2022/08/07 12:16:11;;;;;;;1.05;0.52;;;24.10;79.20;;;;;;6195574;23;20020;-90
2022/08/07 12:18:56;;;;;;;1.67;0.90;;;24.20;78.80;;;;;;6195321;23;20051;-90
2022/08/07 12:21:46;;;;;;;2.03;0.80;;;24.30;76.40;;;;;;6196833;23;20078;-89
2022/08/07 12:24:16;;;;;;;3.00;0.93;;;24.10;76.00;;;;;;6196069;23;20353;-89
2022/08/07 12:26:49;;;;;;;1.92;0.80;;;23.80;76.60;;;;;;6196560;23;20098;-89
2022/08/07 12:29:58;;;;;;;2.63;0.80;;;23.60;77.40;;;;;;6195089;23;20016;-91
2022/08/07 12:33:05;;;;;;;2.78;0.90;;;23.30;77.90;;;;;;6134478;23;20017;-87
2022/08/07 12:35:34;;;;;;;2.03;0.80;;;23.30;78.40;;;;;;6092737;23;20141;-90
2022/08/07 12:38:02;;;;;;;1.52;0.70;;;23.40;79.20;;;;;;6184067;23;20069;-88
2022/08/07 12:40:35;;;;;;;2.13;0.82;;;23.30;78.80;;;;;;6195589;23;20099;-88
2022/08/07 12:43:25;;;;;;;2.95;1.00;;;23.20;78.60;;;;;;6195837;23;20012;-89
2022/08/07 12:50:28;;;;;;;5.97;1.30;;;22.70;80.60;;;;;;6247730;23;20011;-85
2022/08/07 12:53:04;;;;;;;2.20;1.00;;;22.40;82.50;;;;;;6220295;23;20019;-90
2022/08/07 12:55:40;;;;;;;2.78;1.05;;;22.20;82.50;;;;;;6194976;23;20046;-87
2022/08/07 12:58:11;;;;;;;3.03;0.98;;;22.00;83.20;;;;;;6194705;23;20020;-86
2022/08/07 13:00:55;;;;;;;2.97;1.33;;;21.90;83.80;;;;;;6194910;23;20099;-87
2022/08/07 13:03:22;;;;;;;2.75;1.00;;;21.80;84.70;;;;;;6194664;23;20460;-91
2022/08/07 13:06:36;;;;;;;2.67;1.05;;;21.80;84.90;;;;;;6219846;23;20016;-92
2022/08/07 13:09:22;;;;;;;3.10;1.27;;;21.70;85.30;;;;;;6219911;23;20020;-86
2022/08/07 13:11:59;;;;;;;2.67;1.02;;;21.70;85.60;;;;;;6194845;23;20020;-86
2022/08/07 13:14:42;;;;;;;2.63;1.10;;;21.60;85.40;;;;;;6219997;23;20318;-92
2022/08/07 13:17:38;;;;;;;2.08;1.00;;;21.60;85.70;;;;;;6194659;23;20016;-90
2022/08/07 13:20:10;;;;;;;2.03;1.00;;;21.50;85.50;;;;;;6195620;23;20012;-92
2022/08/07 13:22:59;;;;;;;1.73;1.10;;;21.60;86.00;;;;;;6194812;23;20020;-91
2022/08/07 13:25:53;;;;;;;2.60;1.00;;;21.60;85.80;;;;;;6194823;23;20091;-91
2022/08/07 13:28:27;;;;;;;2.60;1.00;;;21.70;85.80;;;;;;6194810;23;20031;-88
2022/08/07 13:31:03;;;;;;;2.78;0.95;;;21.80;86.40;;;;;;6194710;23;20065;-88
2022/08/07 13:33:29;;;;;;;3.15;1.02;;;21.90;86.00;;;;;;6194829;23;20031;-87
2022/08/07 13:36:20;;;;;;;1.58;0.82;;;22.10;85.40;;;;;;6220245;23;20361;-92
2022/08/07 13:39:03;;;;;;;2.95;1.00;;;22.10;85.50;;;;;;6195250;23;20086;-89
2022/08/07 13:41:48;;;;;;;2.15;0.82;;;22.10;85.60;;;;;;6219832;23;20027;-92
2022/08/07 13:44:26;;;;;;;2.60;0.80;;;22.10;85.60;;;;;;6195045;23;20018;-94
2022/08/07 13:46:57;;;;;;;3.60;1.00;;;22.00;85.30;;;;;;6219774;23;20442;-91
2022/08/07 13:49:25;;;;;;;2.20;0.90;;;22.00;85.50;;;;;;6194718;23;20012;-91